Time;durP1;ratioP1;P1;durP2;ratioP2;P2;SDS_P1;SDS_P2;PMS_P1;PMS_P2;Temp;Humidity;BMP_temperature;BMP_pressure;BME280_temperature;BME280_humidity;BME280_pressure;Samples;Min_cycle;Max_cycle;Signal;HPM_P1;HPM_P2
2022/09/20 00:01:07;;;;;;;1.17;1.00;;;8.40;99.90;;;;;;5064939;28;20468;-50
2022/09/20 00:03:34;;;;;;;1.10;0.80;;;8.30;99.90;;;;;;5062622;28;20458;-49
2022/09/20 00:06:02;;;;;;;2.40;1.97;;;8.30;99.90;;;;;;5066469;28;21032;-48
2022/09/20 00:08:30;;;;;;;3.43;0.87;;;8.30;99.90;;;;;;5066886;28;20489;-49
2022/09/20 00:11:02;;;;;;;5.73;1.13;;;8.20;99.90;;;;;;5064833;28;20966;-48
2022/09/20 00:13:29;;;;;;;1.70;1.07;;;8.20;99.90;;;;;;5064570;28;20492;-49
2022/09/20 00:15:56;;;;;;;2.70;1.23;;;8.20;99.90;;;;;;5065568;28;20567;-49
2022/09/20 00:18:23;;;;;;;1.10;1.00;;;8.20;99.90;;;;;;5066797;28;20548;-49
2022/09/20 00:20:50;;;;;;;1.10;0.80;;;8.10;99.90;;;;;;5068219;28;20552;-49
2022/09/20 00:23:18;;;;;;;2.80;1.33;;;8.10;99.90;;;;;;5063622;28;20492;-48
2022/09/20 00:25:53;;;;;;;2.63;1.10;;;8.10;99.90;;;;;;5066067;28;21060;-49
2022/09/20 00:28:20;;;;;;;1.53;1.20;;;8.10;99.90;;;;;;5061977;28;20484;-49
2022/09/20 00:30:48;;;;;;;2.30;1.17;;;8.10;99.90;;;;;;5062894;28;20588;-49
2022/09/20 00:33:14;;;;;;;1.87;0.90;;;8.00;99.90;;;;;;5065886;28;20475;-49
2022/09/20 00:35:42;;;;;;;3.17;1.33;;;8.00;99.90;;;;;;5067860;28;20540;-49
2022/09/20 00:38:09;;;;;;;1.43;1.27;;;8.00;99.90;;;;;;5061491;28;20451;-48
2022/09/20 00:40:36;;;;;;;2.50;0.90;;;8.00;99.90;;;;;;5066163;28;21041;-49
2022/09/20 00:43:04;;;;;;;1.57;1.10;;;8.00;99.90;;;;;;5065484;28;20465;-49
2022/09/20 00:45:31;;;;;;;1.03;0.80;;;7.90;99.90;;;;;;5069237;28;20564;-48
2022/09/20 00:48:03;;;;;;;2.23;1.00;;;7.90;99.90;;;;;;5067175;28;20588;-48
2022/09/20 00:50:35;;;;;;;1.33;1.23;;;7.90;99.90;;;;;;5069211;28;20556;-51
2022/09/20 00:53:06;;;;;;;3.00;1.47;;;7.80;99.90;;;;;;5066179;28;20970;-50
2022/09/20 00:55:35;;;;;;;1.43;1.10;;;7.80;99.90;;;;;;5065741;28;20589;-50
2022/09/20 00:58:04;;;;;;;1.27;0.80;;;7.70;99.90;;;;;;5065799;28;20540;-51
2022/09/20 01:00:31;;;;;;;1.60;1.17;;;7.70;99.90;;;;;;5063288;28;20555;-50
2022/09/20 01:03:00;;;;;;;1.33;1.20;;;7.70;99.90;;;;;;5065146;28;20464;-50
2022/09/20 01:05:27;;;;;;;1.77;1.07;;;7.60;99.90;;;;;;5067481;28;20543;-51
2022/09/20 01:07:55;;;;;;;2.00;1.00;;;7.60;99.90;;;;;;5067619;28;20567;-51
2022/09/20 01:10:22;;;;;;;1.87;1.10;;;7.60;99.90;;;;;;5069873;28;21021;-50
2022/09/20 01:12:50;;;;;;;1.30;1.20;;;7.60;99.90;;;;;;5063020;28;20556;-50
2022/09/20 01:15:19;;;;;;;1.40;1.30;;;7.60;99.90;;;;;;5067150;28;20463;-50
2022/09/20 01:17:48;;;;;;;1.73;0.87;;;7.60;99.90;;;;;;5067763;28;21094;-50
2022/09/20 01:20:21;;;;;;;3.80;1.20;;;7.50;99.90;;;;;;5069389;28;20552;-51
2022/09/20 01:23:12;;;;;;;4.10;0.90;;;7.50;99.90;;;;;;5065356;28;20468;-50
2022/09/20 01:26:22;;;;;;;1.83;1.00;;;7.50;99.90;;;;;;5068913;28;20571;-51
2022/09/20 01:29:00;;;;;;;2.83;1.10;;;7.50;99.90;;;;;;5008423;28;20542;-51
2022/09/20 01:31:31;;;;;;;3.00;1.47;;;7.50;99.90;;;;;;5062886;28;20564;-50
2022/09/20 01:34:00;;;;;;;1.63;1.27;;;7.40;99.90;;;;;;5065330;28;20489;-50
2022/09/20 01:36:33;;;;;;;1.03;1.03;;;7.40;99.90;;;;;;5067517;28;20559;-51
2022/09/20 01:39:08;;;;;;;1.17;1.17;;;7.30;99.90;;;;;;5066119;28;20540;-50
2022/09/20 01:41:39;;;;;;;1.40;1.27;;;7.30;99.90;;;;;;5065166;28;20453;-51
2022/09/20 01:44:16;;;;;;;1.30;1.20;;;7.30;99.90;;;;;;5067709;28;20457;-51
2022/09/20 01:46:43;;;;;;;1.20;1.13;;;7.20;99.90;;;;;;5064834;28;20493;-51
2022/09/20 01:49:22;;;;;;;1.80;1.10;;;7.20;99.90;;;;;;5065498;28;21049;-50
2022/09/20 01:52:29;;;;;;;1.00;1.00;;;7.20;99.90;;;;;;5062024;28;20546;-50
2022/09/20 01:55:32;;;;;;;1.07;0.97;;;7.10;99.90;;;;;;5042942;28;20518;-50
2022/09/20 01:58:35;;;;;;;3.37;0.93;;;7.10;99.90;;;;;;5056851;28;20540;-50
2022/09/20 02:01:54;;;;;;;2.60;1.10;;;7.10;99.90;;;;;;5063828;28;20961;-51
2022/09/20 02:04:53;;;;;;;1.60;1.20;;;7.00;99.90;;;;;;5035125;28;20453;-51
2022/09/20 02:07:46;;;;;;;1.97;1.17;;;7.10;99.90;;;;;;5066601;28;20581;-50
2022/09/20 02:10:49;;;;;;;3.53;1.10;;;7.10;99.90;;;;;;5068501;28;20465;-50
2022/09/20 02:13:28;;;;;;;2.33;1.43;;;7.10;99.90;;;;;;5016172;28;20471;-50
2022/09/20 02:16:16;;;;;;;1.20;1.10;;;7.20;99.90;;;;;;5067130;28;20480;-50
2022/09/20 02:19:07;;;;;;;1.07;0.97;;;7.20;99.90;;;;;;5067850;28;20544;-50
2022/09/20 02:21:39;;;;;;;9.00;1.27;;;7.20;99.90;;;;;;5064116;28;21007;-51
2022/09/20 02:24:22;;;;;;;1.13;1.10;;;7.20;99.90;;;;;;5067805;28;20464;-51
2022/09/20 02:27:02;;;;;;;1.60;1.50;;;7.20;99.90;;;;;;5065807;28;20495;-50
2022/09/20 02:29:39;;;;;;;3.23;1.80;;;7.20;99.90;;;;;;5065640;28;20544;-50
2022/09/20 02:32:23;;;;;;;1.90;1.10;;;7.20;99.90;;;;;;5066904;28;20456;-51
2022/09/20 02:35:16;;;;;;;3.17;0.97;;;7.20;99.90;;;;;;5063407;28;20482;-51
2022/09/20 02:37:57;;;;;;;0.93;0.93;;;7.20;99.90;;;;;;5064558;28;20560;-50
2022/09/20 02:40:53;;;;;;;1.00;1.00;;;7.20;99.90;;;;;;5064196;28;20514;-51
2022/09/20 02:43:27;;;;;;;3.13;0.80;;;7.20;99.90;;;;;;5064269;28;20544;-50
2022/09/20 02:46:03;;;;;;;1.30;1.03;;;7.20;99.90;;;;;;5062071;28;20468;-51
2022/09/20 02:48:36;;;;;;;2.20;1.17;;;7.10;99.90;;;;;;5064850;28;20572;-50
2022/09/20 02:51:09;;;;;;;1.53;0.90;;;7.10;99.90;;;;;;5065366;28;20467;-50
2022/09/20 02:53:43;;;;;;;2.20;1.00;;;7.10;99.90;;;;;;5065925;28;20540;-50
2022/09/20 02:56:19;;;;;;;3.20;1.10;;;7.00;99.90;;;;;;5066944;28;20563;-50
2022/09/20 02:58:54;;;;;;;1.73;1.07;;;7.00;99.90;;;;;;5067204;28;20543;-50
2022/09/20 03:01:32;;;;;;;4.20;1.23;;;7.00;99.90;;;;;;5066077;28;20543;-50
2022/09/20 03:04:11;;;;;;;2.07;1.00;;;7.00;99.90;;;;;;5066980;28;20551;-50
2022/09/20 03:06:49;;;;;;;2.50;1.30;;;7.00;99.90;;;;;;5065977;28;20577;-51
2022/09/20 03:09:38;;;;;;;1.20;1.10;;;6.90;99.90;;;;;;5063678;28;20460;-51
2022/09/20 03:12:17;;;;;;;1.10;1.00;;;6.90;99.90;;;;;;5066382;28;20564;-50
2022/09/20 03:14:52;;;;;;;2.00;1.00;;;6.90;99.90;;;;;;5067956;28;20552;-51
2022/09/20 03:17:27;;;;;;;1.37;1.07;;;6.90;99.90;;;;;;5067533;28;20574;-51
2022/09/20 03:20:08;;;;;;;1.60;1.13;;;6.80;99.90;;;;;;5065926;28;21041;-51
2022/09/20 03:22:45;;;;;;;2.30;1.43;;;6.80;99.90;;;;;;5065377;28;20927;-51
2022/09/20 03:25:33;;;;;;;1.57;1.47;;;6.80;99.90;;;;;;5063211;28;20551;-50
2022/09/20 03:28:09;;;;;;;2.60;1.40;;;6.90;99.90;;;;;;5063877;28;20485;-50
2022/09/20 03:30:45;;;;;;;5.80;1.73;;;6.90;99.90;;;;;;5067155;28;21053;-50
2022/09/20 03:33:20;;;;;;;3.53;1.60;;;6.90;99.90;;;;;;5062655;28;20461;-51
2022/09/20 03:36:01;;;;;;;1.63;1.30;;;6.90;99.90;;;;;;5065005;28;20536;-50
2022/09/20 03:38:56;;;;;;;2.37;1.40;;;7.00;99.90;;;;;;5064085;28;20540;-50
2022/09/20 03:41:43;;;;;;;1.60;1.50;;;7.00;99.90;;;;;;5065211;28;20535;-51
2022/09/20 03:44:25;;;;;;;1.87;1.13;;;7.00;99.90;;;;;;5067794;28;20548;-51
2022/09/20 03:47:02;;;;;;;3.43;1.17;;;7.10;99.90;;;;;;5065625;28;20587;-50
2022/09/20 03:50:00;;;;;;;1.50;1.37;;;7.20;99.90;;;;;;5064331;28;20460;-51
2022/09/20 03:52:44;;;;;;;1.33;1.23;;;7.20;99.90;;;;;;5063446;28;20463;-50
2022/09/20 03:55:43;;;;;;;2.00;1.10;;;7.30;99.90;;;;;;5063308;28;20541;-51
2022/09/20 03:58:21;;;;;;;1.20;1.20;;;7.30;99.90;;;;;;5064636;28;21075;-51
2022/09/20 04:01:03;;;;;;;2.10;1.10;;;7.30;99.90;;;;;;5063160;28;20544;-50
2022/09/20 04:03:37;;;;;;;1.30;1.20;;;7.40;99.90;;;;;;5063488;28;20579;-51
2022/09/20 04:06:17;;;;;;;2.47;1.23;;;7.40;99.90;;;;;;5066894;28;20571;-50
2022/09/20 04:08:58;;;;;;;2.00;1.00;;;7.40;99.90;;;;;;5065066;28;20544;-51
2022/09/20 04:11:34;;;;;;;5.50;1.57;;;7.40;99.90;;;;;;5064376;28;20814;-53
2022/09/20 04:14:09;;;;;;;1.63;1.10;;;7.40;99.90;;;;;;5064493;28;20880;-51
2022/09/20 04:16:42;;;;;;;1.10;1.10;;;7.40;99.90;;;;;;5064013;28;20515;-52
2022/09/20 04:19:17;;;;;;;1.60;1.00;;;7.50;99.90;;;;;;5067676;28;20549;-50
2022/09/20 04:21:51;;;;;;;3.83;1.40;;;7.50;99.90;;;;;;5068333;28;21214;-51
2022/09/20 04:24:23;;;;;;;1.60;1.50;;;7.50;99.90;;;;;;5065050;28;20551;-50
2022/09/20 04:26:58;;;;;;;1.63;1.17;;;7.50;99.90;;;;;;5068567;28;20884;-50
2022/09/20 04:29:32;;;;;;;2.20;1.30;;;7.50;99.90;;;;;;5065246;28;21050;-50
2022/09/20 04:32:06;;;;;;;1.70;1.00;;;7.50;99.90;;;;;;5069131;28;20464;-48
2022/09/20 04:37:31;;;;;;;1.07;1.07;;;7.60;99.90;;;;;;5066821;28;20455;-49
2022/09/20 04:40:09;;;;;;;1.23;1.13;;;7.60;99.90;;;;;;5070473;28;20464;-49
2022/09/20 04:43:07;;;;;;;0.80;0.80;;;7.60;99.90;;;;;;5065964;28;20543;-48
2022/09/20 04:46:15;;;;;;;4.40;1.30;;;7.60;99.90;;;;;;5065659;28;20457;-49
2022/09/20 04:49:12;;;;;;;2.87;1.00;;;7.60;99.90;;;;;;5065949;28;20459;-49
2022/09/20 04:52:10;;;;;;;1.63;1.07;;;7.70;99.90;;;;;;5065006;28;20457;-49
2022/09/20 04:54:57;;;;;;;1.80;1.20;;;7.70;99.90;;;;;;5062236;28;20468;-49
2022/09/20 04:57:53;;;;;;;1.00;1.00;;;7.70;99.90;;;;;;5064476;28;20568;-48
2022/09/20 05:00:22;;;;;;;1.43;1.33;;;7.70;99.90;;;;;;5062114;28;20468;-49
2022/09/20 05:03:15;;;;;;;0.83;0.83;;;7.70;99.90;;;;;;5062958;28;20457;-49
2022/09/20 05:06:14;;;;;;;3.00;1.00;;;7.70;99.90;;;;;;5066641;28;20548;-47
2022/09/20 05:08:59;;;;;;;3.87;1.50;;;7.80;99.90;;;;;;5071424;28;20568;-47
2022/09/20 05:11:50;;;;;;;1.93;1.20;;;7.80;99.90;;;;;;5064615;28;20500;-47
2022/09/20 05:14:36;;;;;;;2.67;1.60;;;7.80;99.90;;;;;;5065540;28;21125;-46
2022/09/20 05:17:22;;;;;;;1.50;1.40;;;7.80;99.90;;;;;;5068471;28;20579;-47
2022/09/20 05:20:23;;;;;;;1.57;1.30;;;7.80;99.90;;;;;;5062055;28;20518;-47
2022/09/20 05:23:12;;;;;;;1.90;1.60;;;7.80;99.90;;;;;;5063581;28;20465;-48
2022/09/20 05:25:55;;;;;;;2.70;2.47;;;7.80;99.90;;;;;;5067496;28;20884;-46
2022/09/20 05:28:29;;;;;;;1.57;1.47;;;7.90;99.90;;;;;;5064927;28;20580;-46
2022/09/20 05:30:59;;;;;;;1.37;1.37;;;8.00;99.90;;;;;;5067185;28;20536;-48
2022/09/20 05:33:32;;;;;;;3.33;1.40;;;8.00;98.20;;;;;;5068553;28;20544;-50
2022/09/20 05:36:05;;;;;;;1.20;1.20;;;8.10;98.00;;;;;;5065323;28;20480;-51
2022/09/20 05:38:42;;;;;;;2.50;1.50;;;8.20;95.90;;;;;;5069257;28;20536;-51
2022/09/20 05:41:18;;;;;;;5.50;1.90;;;8.20;93.50;;;;;;5065730;28;20535;-48
2022/09/20 05:43:53;;;;;;;1.67;1.57;;;8.30;91.80;;;;;;5065347;28;20939;-48
2022/09/20 05:46:34;;;;;;;5.27;1.37;;;8.30;90.50;;;;;;5068127;28;20567;-48
2022/09/20 05:49:10;;;;;;;1.57;1.47;;;8.40;89.70;;;;;;5070109;28;20522;-48
2022/09/20 05:51:52;;;;;;;1.37;1.20;;;8.40;88.00;;;;;;5066186;28;20453;-49
2022/09/20 05:54:35;;;;;;;1.53;1.43;;;8.50;87.40;;;;;;5071120;28;20619;-49
2022/09/20 05:57:15;;;;;;;1.60;1.50;;;8.50;87.30;;;;;;5067826;28;20560;-48
2022/09/20 05:59:57;;;;;;;5.10;1.90;;;8.50;87.80;;;;;;5069883;28;20547;-48
2022/09/20 06:02:37;;;;;;;2.27;1.63;;;8.60;86.20;;;;;;5057861;28;20562;-48
2022/09/20 06:05:13;;;;;;;2.03;1.83;;;8.60;85.40;;;;;;5067354;28;20539;-48
2022/09/20 06:07:57;;;;;;;1.77;1.50;;;8.60;85.30;;;;;;5069431;28;20571;-48
2022/09/20 06:10:40;;;;;;;1.73;1.30;;;8.60;85.40;;;;;;5067589;28;20457;-49
2022/09/20 06:13:29;;;;;;;8.13;1.53;;;8.70;84.90;;;;;;5069944;28;20492;-49
2022/09/20 06:15:59;;;;;;;1.57;1.47;;;8.70;82.30;;;;;;5070407;28;20530;-48
2022/09/20 06:18:32;;;;;;;3.00;1.63;;;8.70;84.00;;;;;;5070498;28;20544;-49
2022/09/20 06:21:08;;;;;;;1.53;1.43;;;8.80;84.00;;;;;;5068129;28;20563;-48
2022/09/20 06:23:36;;;;;;;3.50;2.97;;;8.80;83.30;;;;;;5069603;28;20942;-48
2022/09/20 06:26:07;;;;;;;2.93;1.60;;;8.80;83.30;;;;;;5068554;28;20578;-49
2022/09/20 06:28:38;;;;;;;1.43;1.33;;;8.80;85.50;;;;;;5062311;28;20510;-49
2022/09/20 06:31:07;;;;;;;4.83;1.57;;;8.80;85.50;;;;;;5068723;28;20541;-48
2022/09/20 06:33:43;;;;;;;1.83;1.30;;;8.80;85.30;;;;;;5071982;28;20485;-49
2022/09/20 06:41:53;;;;;;;3.63;2.00;;;8.90;85.80;;;;;;5068027;28;20484;-49
2022/09/20 06:44:20;;;;;;;2.10;1.43;;;8.90;86.80;;;;;;5065427;28;20532;-49
2022/09/20 06:46:46;;;;;;;4.63;1.60;;;8.90;88.10;;;;;;5067870;28;20567;-49
2022/09/20 06:49:14;;;;;;;2.60;1.43;;;8.90;88.10;;;;;;5066798;28;20477;-49
2022/09/20 06:51:42;;;;;;;2.50;1.90;;;8.90;90.00;;;;;;5066190;28;21036;-48
2022/09/20 06:54:16;;;;;;;2.33;2.13;;;8.90;91.10;;;;;;5065287;28;20457;-48
2022/09/20 06:56:45;;;;;;;1.83;1.70;;;8.90;92.20;;;;;;5066224;28;20479;-49
2022/09/20 06:59:14;;;;;;;4.10;1.87;;;8.90;91.50;;;;;;5064441;28;20464;-48
2022/09/20 07:01:41;;;;;;;1.57;1.47;;;8.90;91.80;;;;;;5062264;28;22485;-47
2022/09/20 07:04:08;;;;;;;2.27;1.30;;;8.90;91.50;;;;;;5065921;28;20559;-47
2022/09/20 07:06:36;;;;;;;7.00;1.40;;;8.90;92.60;;;;;;5069237;28;20556;-47
2022/09/20 07:09:03;;;;;;;2.07;1.87;;;8.90;93.40;;;;;;5065795;28;20571;-47
2022/09/20 07:11:33;;;;;;;3.43;1.70;;;9.00;91.70;;;;;;5061011;28;20462;-47
2022/09/20 07:14:01;;;;;;;2.73;1.57;;;9.10;89.90;;;;;;5070052;28;20547;-47
2022/09/20 07:16:28;;;;;;;2.50;1.63;;;9.20;89.50;;;;;;5069076;28;20523;-48
2022/09/20 07:18:55;;;;;;;3.03;1.70;;;9.40;88.70;;;;;;5067118;28;20540;-47
2022/09/20 07:21:22;;;;;;;3.17;1.63;;;9.50;88.30;;;;;;5054987;28;20510;-47
2022/09/20 07:23:52;;;;;;;4.00;1.33;;;9.80;89.90;;;;;;5066352;28;20545;-48
2022/09/20 07:26:22;;;;;;;1.63;1.53;;;10.00;94.80;;;;;;5061720;28;20476;-46
2022/09/20 07:28:49;;;;;;;1.83;1.60;;;10.20;99.90;;;;;;5057417;28;20477;-46
2022/09/20 07:31:16;;;;;;;8.73;1.30;;;10.40;99.90;;;;;;5055400;28;20459;-48
2022/09/20 07:33:43;;;;;;;6.63;1.97;;;10.50;99.90;;;;;;5067638;28;20914;-46
2022/09/20 07:36:11;;;;;;;5.13;1.70;;;10.60;99.90;;;;;;5061325;28;20921;-47
2022/09/20 07:38:37;;;;;;;5.50;1.43;;;10.60;99.90;;;;;;5067663;28;20457;-47
2022/09/20 07:41:06;;;;;;;6.00;1.80;;;10.60;99.90;;;;;;5060949;28;20855;-47
2022/09/20 07:43:33;;;;;;;4.40;1.43;;;10.60;99.90;;;;;;5066356;28;20457;-48
2022/09/20 07:46:00;;;;;;;5.73;1.70;;;10.60;99.90;;;;;;5069203;28;20576;-46
2022/09/20 07:48:29;;;;;;;1.03;1.00;;;10.70;99.90;;;;;;5066648;28;20487;-46
2022/09/20 07:50:58;;;;;;;1.30;1.20;;;10.70;99.90;;;;;;5066966;28;20532;-46
2022/09/20 07:53:24;;;;;;;2.70;1.60;;;10.80;99.90;;;;;;5067030;28;20539;-47
2022/09/20 07:55:58;;;;;;;6.93;1.57;;;10.90;99.90;;;;;;5069097;28;20553;-48
2022/09/20 07:58:27;;;;;;;1.93;1.30;;;11.00;99.90;;;;;;5065968;28;21289;-47
2022/09/20 08:00:54;;;;;;;2.70;1.40;;;11.10;99.90;;;;;;5060841;28;20479;-47
2022/09/20 08:03:21;;;;;;;10.43;1.60;;;11.20;99.90;;;;;;5065980;28;20472;-47
2022/09/20 08:05:48;;;;;;;1.60;1.50;;;11.30;99.90;;;;;;5071384;28;20457;-47
2022/09/20 08:08:15;;;;;;;2.73;1.20;;;11.40;99.90;;;;;;5061801;28;21006;-47
2022/09/20 08:10:42;;;;;;;4.40;1.40;;;11.50;99.90;;;;;;5068469;28;20825;-47
2022/09/20 08:13:08;;;;;;;1.23;1.13;;;11.50;99.90;;;;;;5071182;28;20548;-47
2022/09/20 08:15:36;;;;;;;7.00;1.53;;;11.60;99.90;;;;;;5065985;28;20461;-48
2022/09/20 08:18:03;;;;;;;0.90;0.90;;;11.80;99.90;;;;;;5067616;28;21863;-47
2022/09/20 08:20:29;;;;;;;1.10;1.10;;;11.80;99.90;;;;;;5066773;28;20547;-47
2022/09/20 08:22:58;;;;;;;3.97;1.30;;;11.90;24.60;;;;;;5065013;28;20456;-47
2022/09/20 08:25:25;;;;;;;2.07;1.40;;;12.00;29.90;;;;;;5066741;28;20535;-47
2022/09/20 08:27:53;;;;;;;4.63;1.30;;;12.00;42.40;;;;;;5067572;28;20484;-47
2022/09/20 08:30:19;;;;;;;3.23;1.17;;;12.10;44.10;;;;;;5069304;28;20461;-47
2022/09/20 08:32:47;;;;;;;1.27;1.20;;;12.20;49.40;;;;;;5063487;28;20643;-47
2022/09/20 08:35:14;;;;;;;1.20;1.10;;;12.30;58.30;;;;;;5060856;28;20465;-48
2022/09/20 08:37:42;;;;;;;4.13;1.60;;;12.40;65.80;;;;;;5064363;28;20472;-47
2022/09/20 08:40:10;;;;;;;5.50;1.50;;;12.50;65.30;;;;;;5063510;28;20996;-47
2022/09/20 08:42:38;;;;;;;1.30;1.20;;;12.60;62.90;;;;;;5068717;28;20533;-47
2022/09/20 08:45:07;;;;;;;6.30;1.00;;;12.70;67.40;;;;;;5066379;28;20547;-47
2022/09/20 08:47:37;;;;;;;64.50;41.97;;;12.70;73.90;;;;;;5060894;28;20576;-46
2022/09/20 08:50:07;;;;;;;4.00;1.57;;;12.90;71.30;;;;;;5069219;28;20469;-47
2022/09/20 08:52:38;;;;;;;6.73;4.83;;;13.00;87.00;;;;;;5052636;28;21343;-47
2022/09/20 08:55:15;;;;;;;5.33;4.80;;;13.00;91.50;;;;;;5056992;28;20551;-47
2022/09/20 08:57:42;;;;;;;3.90;1.60;;;13.20;96.80;;;;;;5069790;28;20553;-47
2022/09/20 09:00:17;;;;;;;2.57;2.47;;;13.30;89.10;;;;;;5073596;28;20465;-47
2022/09/20 09:02:44;;;;;;;1.13;1.13;;;13.40;95.60;;;;;;5073673;28;20447;-48
2022/09/20 09:05:25;;;;;;;4.20;1.37;;;13.40;99.90;;;;;;5070282;28;20468;-46
2022/09/20 09:07:52;;;;;;;4.87;4.37;;;13.50;99.90;;;;;;5076340;28;20478;-47
2022/09/20 09:10:18;;;;;;;3.03;1.27;;;13.60;99.90;;;;;;5065242;28;20548;-47
2022/09/20 09:12:46;;;;;;;1.53;1.40;;;14.00;99.90;;;;;;5070817;28;20544;-47
2022/09/20 09:15:25;;;;;;;1.87;1.20;;;14.00;99.90;;;;;;5072797;28;20542;-46
2022/09/20 09:17:53;;;;;;;2.83;1.83;;;14.10;99.90;;;;;;5072059;28;20575;-46
2022/09/20 09:20:23;;;;;;;1.43;1.27;;;14.10;99.90;;;;;;5070144;28;21049;-46
2022/09/20 09:23:00;;;;;;;2.70;1.33;;;14.20;99.90;;;;;;5062808;28;20518;-47
2022/09/20 09:25:33;;;;;;;3.00;1.30;;;14.30;99.90;;;;;;5067270;28;20467;-46
2022/09/20 09:28:02;;;;;;;3.27;1.20;;;14.40;99.90;;;;;;5067789;28;20530;-48
2022/09/20 09:30:30;;;;;;;2.57;1.47;;;14.20;99.90;;;;;;5067773;28;21066;-47
2022/09/20 09:33:20;;;;;;;3.77;1.03;;;14.10;99.90;;;;;;5069376;28;20457;-46
2022/09/20 09:35:55;;;;;;;1.63;1.27;;;14.10;99.90;;;;;;5065801;28;20457;-46
2022/09/20 09:38:23;;;;;;;1.60;1.50;;;14.20;99.90;;;;;;5068827;28;20547;-47
2022/09/20 09:40:53;;;;;;;2.10;1.40;;;14.30;99.90;;;;;;5062923;28;20454;-48
2022/09/20 09:43:22;;;;;;;8.17;2.10;;;14.20;99.90;;;;;;5069469;28;21261;-47
2022/09/20 09:45:49;;;;;;;3.00;2.03;;;14.10;99.90;;;;;;5067086;28;20484;-47
2022/09/20 09:48:21;;;;;;;2.60;1.60;;;14.00;99.90;;;;;;5070079;28;20926;-47
2022/09/20 09:50:47;;;;;;;2.10;1.53;;;13.90;99.90;;;;;;5064327;28;20501;-46
2022/09/20 09:53:20;;;;;;;1.83;1.60;;;13.80;99.90;;;;;;5065711;28;20548;-46
2022/09/20 09:56:11;;;;;;;4.50;1.83;;;13.70;99.90;;;;;;5065981;28;20572;-47
2022/09/20 09:58:55;;;;;;;2.80;1.77;;;13.70;99.90;;;;;;5055277;28;20622;-47
2022/09/20 10:01:42;;;;;;;4.30;1.73;;;13.60;99.90;;;;;;5074092;28;20506;-45
2022/09/20 10:04:15;;;;;;;5.20;1.93;;;13.60;99.90;;;;;;5070158;28;20544;-47
2022/09/20 10:06:46;;;;;;;7.60;4.83;;;13.50;99.90;;;;;;5068546;28;20990;-47
2022/09/20 10:09:29;;;;;;;6.30;5.80;;;13.50;99.90;;;;;;5076929;28;20516;-47
2022/09/20 10:12:12;;;;;;;2.73;2.53;;;13.40;99.90;;;;;;5068496;28;20539;-47
2022/09/20 10:14:51;;;;;;;7.10;3.57;;;13.30;99.90;;;;;;5069023;28;20557;-47
2022/09/20 10:17:37;;;;;;;10.03;2.60;;;13.30;99.90;;;;;;5069598;28;20495;-47
2022/09/20 10:20:21;;;;;;;3.23;3.03;;;13.30;99.90;;;;;;5068053;28;20471;-45
2022/09/20 10:22:59;;;;;;;2.33;2.17;;;13.30;99.90;;;;;;5065300;28;20465;-47
2022/09/20 10:25:39;;;;;;;3.57;2.57;;;13.30;99.90;;;;;;5071428;28;20463;-47
2022/09/20 10:28:18;;;;;;;1.60;1.50;;;13.30;99.90;;;;;;5067546;28;20468;-48
2022/09/20 10:30:57;;;;;;;2.40;1.63;;;13.20;99.90;;;;;;5074334;28;20574;-48
2022/09/20 10:33:31;;;;;;;2.40;2.20;;;13.20;99.90;;;;;;5068861;28;20468;-48
2022/09/20 10:36:08;;;;;;;3.97;2.47;;;13.00;94.70;;;;;;5067179;28;20485;-47
2022/09/20 10:38:41;;;;;;;3.00;2.47;;;12.90;69.40;;;;;;5070987;28;20895;-48
2022/09/20 10:44:30;;;;;;;1.70;1.60;;;12.30;42.10;;;;;;5065682;28;20605;-48
2022/09/20 10:47:05;;;;;;;3.27;0.80;;;11.90;43.60;;;;;;5067089;28;20485;-48
2022/09/20 10:49:36;;;;;;;1.03;1.03;;;11.60;39.90;;;;;;5071092;28;20514;-48
2022/09/20 10:52:19;;;;;;;2.33;0.63;;;11.20;40.90;;;;;;5066922;28;20551;-48
2022/09/20 10:55:03;;;;;;;1.00;0.80;;;11.00;92.10;;;;;;5068786;28;20473;-47
2022/09/20 10:57:50;;;;;;;1.67;0.70;;;10.90;99.90;;;;;;5064278;28;20476;-48
2022/09/20 11:00:22;;;;;;;1.17;0.60;;;10.80;99.90;;;;;;5063995;28;20552;-48
2022/09/20 11:02:59;;;;;;;1.07;1.00;;;10.60;99.90;;;;;;5057376;28;20457;-48
2022/09/20 11:05:31;;;;;;;0.90;0.90;;;10.50;99.90;;;;;;5064754;28;20451;-47
2022/09/20 11:08:10;;;;;;;2.30;1.47;;;10.50;99.90;;;;;;5062252;28;20571;-49
2022/09/20 11:10:42;;;;;;;2.20;1.67;;;10.50;99.90;;;;;;5063714;28;20489;-49
2022/09/20 11:13:22;;;;;;;1.20;1.20;;;10.50;99.90;;;;;;5054468;28;20465;-48
2022/09/20 11:15:55;;;;;;;1.20;1.20;;;10.50;99.90;;;;;;5063813;28;20453;-48
2022/09/20 11:18:24;;;;;;;3.47;1.33;;;10.50;99.90;;;;;;5065875;28;20569;-48
2022/09/20 11:20:59;;;;;;;8.17;2.23;;;10.50;99.90;;;;;;5060997;28;20541;-49
2022/09/20 11:23:34;;;;;;;2.33;1.27;;;10.60;98.60;;;;;;5062015;28;20492;-48
2022/09/20 11:26:08;;;;;;;1.80;1.70;;;10.70;93.40;;;;;;5066181;28;20562;-48
2022/09/20 11:28:41;;;;;;;12.73;2.80;;;10.80;87.60;;;;;;5068172;28;20535;-47
2022/09/20 11:31:14;;;;;;;3.20;2.30;;;11.00;80.60;;;;;;5069732;28;20544;-48
2022/09/20 11:33:45;;;;;;;3.30;3.10;;;11.20;73.00;;;;;;5064056;28;20465;-48
2022/09/20 11:36:18;;;;;;;3.30;3.00;;;11.60;55.50;;;;;;5061866;28;20512;-49
2022/09/20 11:38:51;;;;;;;4.10;3.10;;;11.80;51.00;;;;;;5065564;28;20451;-48
2022/09/20 11:41:22;;;;;;;3.13;2.67;;;12.00;51.70;;;;;;5061467;28;20556;-48
2022/09/20 11:43:52;;;;;;;2.97;2.77;;;12.20;47.50;;;;;;5062951;28;20654;-48
2022/09/20 11:46:23;;;;;;;3.83;3.10;;;12.30;47.60;;;;;;5052385;28;20495;-48
2022/09/20 11:48:54;;;;;;;3.63;3.30;;;12.40;49.40;;;;;;5072317;28;20571;-48
2022/09/20 11:51:44;;;;;;;3.07;2.80;;;12.50;53.10;;;;;;5062120;28;20980;-48
2022/09/20 11:54:26;;;;;;;2.30;2.20;;;12.60;55.80;;;;;;5067010;28;20464;-48
2022/09/20 11:56:55;;;;;;;1.70;1.60;;;12.60;68.00;;;;;;5059780;28;21054;-48
2022/09/20 11:59:29;;;;;;;3.67;1.20;;;12.40;89.90;;;;;;5061879;28;22239;-48
2022/09/20 12:02:00;;;;;;;1.63;1.40;;;12.30;99.90;;;;;;5065600;28;20535;-48
2022/09/20 12:04:29;;;;;;;1.60;1.50;;;12.20;99.90;;;;;;5071446;28;20497;-48
2022/09/20 12:06:59;;;;;;;2.50;1.73;;;12.20;99.90;;;;;;5064626;28;20568;-49
2022/09/20 12:09:30;;;;;;;2.00;1.90;;;12.40;99.90;;;;;;5066507;28;20523;-49
2022/09/20 12:11:57;;;;;;;2.50;1.40;;;12.50;99.90;;;;;;5060018;28;20465;-48
2022/09/20 12:14:26;;;;;;;2.30;1.53;;;12.60;99.90;;;;;;5057190;28;20457;-48
2022/09/20 12:16:55;;;;;;;1.67;1.57;;;12.60;99.90;;;;;;5062554;28;20491;-48
2022/09/20 12:19:38;;;;;;;1.30;1.20;;;12.60;99.90;;;;;;5067050;28;21893;-48
2022/09/20 12:22:28;;;;;;;1.40;1.30;;;12.50;99.90;;;;;;5065355;28;20461;-48
2022/09/20 12:25:44;;;;;;;2.37;2.17;;;12.50;99.90;;;;;;5068376;28;20457;-48
2022/09/20 12:28:14;;;;;;;2.90;2.00;;;12.50;99.90;;;;;;5001025;28;20460;-47
2022/09/20 12:30:42;;;;;;;2.70;2.50;;;12.60;99.90;;;;;;5049110;28;20499;-48
2022/09/20 12:33:19;;;;;;;2.33;2.13;;;12.80;99.90;;;;;;5062371;28;20511;-48
2022/09/20 12:36:25;;;;;;;2.77;2.43;;;12.90;99.90;;;;;;5066348;28;20453;-48
2022/09/20 12:39:01;;;;;;;2.07;1.67;;;12.90;99.90;;;;;;5060728;28;20473;-47
2022/09/20 12:41:43;;;;;;;1.90;1.80;;;12.80;99.90;;;;;;5063305;28;20888;-47
2022/09/20 12:44:29;;;;;;;1.53;1.20;;;12.60;72.50;;;;;;5066625;28;20460;-48
2022/09/20 12:47:00;;;;;;;2.83;1.90;;;12.40;22.50;;;;;;5070058;28;20531;-48
2022/09/20 12:55:37;;;;;;;3.30;3.10;;;12.70;63.50;;;;;;5066248;28;20472;-48
2022/09/20 12:58:16;;;;;;;1.47;1.47;;;12.70;98.10;;;;;;5070525;28;20453;-48
2022/09/20 13:00:46;;;;;;;2.17;1.00;;;12.90;99.90;;;;;;5069898;28;20901;-48
2022/09/20 13:03:30;;;;;;;1.83;1.00;;;13.00;98.20;;;;;;5063412;28;20909;-49
2022/09/20 13:06:23;;;;;;;13.87;12.77;;;13.10;94.90;;;;;;5067067;28;20515;-49
2022/09/20 13:08:55;;;;;;;1.97;1.87;;;13.20;82.70;;;;;;5047555;28;20483;-49
2022/09/20 13:11:26;;;;;;;1.47;0.90;;;13.10;99.90;;;;;;5066501;28;21022;-49
2022/09/20 13:13:57;;;;;;;2.53;1.93;;;13.10;95.00;;;;;;5069036;28;20487;-48
2022/09/20 13:16:28;;;;;;;0.90;0.80;;;13.00;99.90;;;;;;5070806;28;20491;-49
2022/09/20 13:19:03;;;;;;;2.70;0.70;;;13.00;99.90;;;;;;5070115;28;20449;-49
2022/09/20 13:21:31;;;;;;;2.50;2.30;;;13.00;99.90;;;;;;5064405;28;20460;-49
2022/09/20 13:23:59;;;;;;;0.70;0.70;;;13.20;99.90;;;;;;5070612;28;20563;-49
2022/09/20 13:26:29;;;;;;;2.53;2.33;;;13.20;98.80;;;;;;5062071;28;20982;-49
2022/09/20 13:28:57;;;;;;;1.33;1.30;;;13.30;99.90;;;;;;5067592;28;20580;-48
2022/09/20 13:31:30;;;;;;;2.37;2.27;;;13.20;99.90;;;;;;5065078;28;20466;-48
2022/09/20 13:34:13;;;;;;;0.97;0.87;;;13.20;99.90;;;;;;5065892;28;20465;-48
2022/09/20 13:36:40;;;;;;;2.90;2.47;;;13.10;99.90;;;;;;5068169;28;20967;-49
2022/09/20 13:39:07;;;;;;;1.43;1.03;;;13.10;99.90;;;;;;5064509;28;22254;-49
2022/09/20 13:41:35;;;;;;;2.40;2.07;;;13.30;99.90;;;;;;5064928;28;20464;-49
2022/09/20 13:44:02;;;;;;;2.30;1.90;;;13.50;99.90;;;;;;5062702;28;20947;-48
2022/09/20 13:46:30;;;;;;;2.90;1.10;;;13.80;99.90;;;;;;5068497;28;20635;-48
2022/09/20 13:49:09;;;;;;;0.70;0.70;;;14.00;99.90;;;;;;5065012;28;20464;-49
2022/09/20 13:51:37;;;;;;;2.00;1.00;;;14.10;99.90;;;;;;5066971;28;20548;-49
2022/09/20 13:54:26;;;;;;;2.70;1.47;;;14.20;99.90;;;;;;5061907;28;20551;-48